Portada
METAR-TAF:

METAR-TAF

Aeroports :

Kíev, Ucraïna

latitud: 50-24N, longitud: 030-34E, altitud: 166 m

Observació

L'informe es va fer fa 37 minuts, a les 10:30 UTC
Vent 6 kt del Sud/Sud-Oest, variant entre Sud-Est i Oest
Temperatura 30°C
Humitat 43%
Pressió 1018 hPa
Visibilitat 10 km o més
sense núvols per sota de 1500 mi sense presència de cumulonimbus.

METAR: UKKK 111030Z 21003MPS 140V270 CAVOK 30/16 Q1018 R26/70D NOSIG

Hora: 14:07 (11:07 UTC)

Pronòstic

L'informe es va fer fa 6 hores i 5 minuts, a les 05:02 UTC
Pronòstic vàlid del 11 a les 06 UTC al 12 a les 06 UTC
Vent 6 kt del Sud amb ràfegues de 16 kt
Visibilitat 10 km o més
Núvols disperses a una alçada de 3000 ft

TAF: UKKK 110502Z 1106/1206 17003G08MPS 9999 SCT030 TX30/1112Z TN16/1202Z

Observacions i pronòstics meteorològics de més de 4000 aeroports (METAR i TAF).

Les estacions disponibles són els punts grocs i vermells al mapa.

Posi el ratolí al punt desitjat per veure el nom de l'estació.

Feu clic per veure les observacions i els pronòstics meteorològics.

Per canviar el mapa: feu clic els botons verds amb una creu de color negre per apropar; al botó verd amb un guió per allunyar la imatge; o en les fletxes verdes per a mapes adjacents.


METAR-TAF: